Runnelstown, Mississippi
Current Conditions -  °F | °C
As of 9:53 AM on Friday 28 Nov 2014 (Local Time) from KHBG Reporting Station
Clear Clear  
Wind Chill: 41°   Ceiling: Unl
Heat Index: 45°   Visibility: 10mi
Dew Point: 29°   Wind: 7mph
Humidity: 53%   Direction: 110°ESE
Pressure: 30.47"   Gusts: NA
Location:  31.1996°N, 89.2694°W
Report Text: KHBG 281553Z AUTO 11006KT 10SM CLR 07/M02 A3047 RMK AO2 SLP316 T00721017
Loading
Personal Weather Stations






























Interactive Weather Map New forecast layout! Learn more

10-Day Weather Forecast

Advertisements
Track Severe Weather on mobile